Time;durP1;ratioP1;P1;durP2;ratioP2;P2;SDS_P1;SDS_P2;PMS_P1;PMS_P2;Temp;Humidity;BMP_temperature;BMP_pressure;BME280_temperature;BME280_humidity;BME280_pressure;Samples;Min_cycle;Max_cycle;Signal;HPM_P1;HPM_P2
2023/10/13 00:00:40;;;;;;;57.67;24.80;;;13.90;62.30;;;;;;5096360;28;20112;-84
2023/10/13 00:03:14;;;;;;;52.33;24.48;;;14.10;56.70;;;;;;5129399;28;20043;-83
2023/10/13 00:05:41;;;;;;;;;;;14.10;68.20;;;;;;5096550;28;20043;-83
2023/10/13 00:08:08;;;;;;;59.88;27.05;;;14.00;64.90;;;;;;5112339;28;19942;-83
2023/10/13 00:10:35;;;;;;;72.95;27.08;;;;;;;;;;5098493;28;20039;-87
2023/10/13 00:15:38;;;;;;;65.20;27.10;;;;;;;;;;5119321;27;20062;-87
2023/10/13 00:18:12;;;;;;;57.80;27.25;;;;;;;;;;5102799;27;20266;-84
2023/10/13 00:20:39;;;;;;;55.45;27.15;;;;;;;;;;5101387;27;20179;-83
2023/10/13 00:23:06;;;;;;;56.65;27.80;;;;;;;;;;5101616;27;20046;-91
2023/10/13 00:25:43;;;;;;;57.35;27.25;;;;;;;;;;5098279;28;20051;-90
2023/10/13 00:28:09;;;;;;;49.38;25.25;;;;;;;;;;5083326;28;20166;-92
2023/10/13 00:30:36;;;;;;;55.40;26.77;;;;;;;;;;5115614;28;20039;-87
2023/10/13 00:33:04;;;;;;;51.88;26.23;;;;;;;;;;5098950;28;20104;-91
2023/10/13 00:35:36;;;;;;;62.65;26.17;;;;;;;;;;5098900;28;20387;-94
2023/10/13 00:38:16;;;;;;;44.83;23.45;;;14.50;68.90;;;;;;5116260;28;20051;-95
2023/10/13 00:40:44;;;;;;;49.50;25.48;;;;;;;;;;5098885;28;20500;-91
2023/10/13 00:45:57;;;;;;;50.80;25.63;;;;;;;;;;5115774;28;20048;-90
2023/10/13 00:48:34;;;;;;;55.58;26.58;;;;;;;;;;5098722;28;20051;-90
2023/10/13 00:51:06;;;;;;;44.08;24.20;;;;;;;;;;5098573;28;20048;-91
2023/10/13 00:53:39;;;;;;;53.78;25.67;;;;;;;;;;5099025;28;20138;-90
2023/10/13 00:56:07;;;;;;;38.78;22.08;;;;;;;;;;5099384;28;20061;-94
2023/10/13 00:58:39;;;;;;;46.83;22.58;;;15.10;64.40;;;;;;5082031;28;20507;-94
2023/10/13 01:01:18;;;;;;;41.85;23.55;;;;;;;;;;5115606;28;20054;-85
2023/10/13 01:03:49;;;;;;;44.20;22.60;;;15.10;79.70;;;;;;5115074;28;20054;-89
2023/10/13 01:06:17;;;;;;;44.90;22.20;;;;;;;;;;5097687;28;20048;-89
2023/10/13 01:08:50;;;;;;;40.47;22.33;;;15.20;79.00;;;;;;5097501;28;20040;-89
2023/10/13 01:11:19;;;;;;;37.28;22.80;;;15.20;94.50;;;;;;5107693;28;20036;-84
2023/10/13 01:13:50;;;;;;;45.63;22.48;;;;;;;;;;5109903;28;20039;-81
2023/10/13 01:16:17;;;;;;;35.70;20.98;;;;;;;;;;5091336;28;20044;-85
2023/10/13 01:18:48;;;;;;;49.40;21.98;;;;;;;;;;5089043;28;20044;-83
2023/10/13 01:21:20;;;;;;;42.88;21.73;;;;;;;;;;5111405;28;20067;-83
2023/10/13 01:23:48;;;;;;;41.85;22.30;;;;;;;;;;5109158;28;20054;-82
2023/10/13 01:26:21;;;;;;;46.88;20.80;;;;;;;;;;5112461;27;20093;-82
2023/10/13 01:28:49;;;;;;;51.20;22.77;;;;;;;;;;5097308;27;20046;-83
2023/10/13 01:31:26;;;;;;;39.60;19.02;;;;;;;;;;5110303;27;20088;-85
2023/10/13 01:33:58;;;;;;;41.60;22.77;;;;;;;;;;5097364;27;20102;-83
2023/10/13 01:36:28;;;;;;;35.85;21.10;;;15.60;83.60;;;;;;5115401;27;20043;-83
2023/10/13 01:38:55;;;;;;;39.17;21.20;;;;;;;;;;5115761;27;20057;-83
2023/10/13 01:41:22;;;;;;;40.15;19.83;;;;;;;;;;5111791;27;20039;-82
2023/10/13 01:43:48;;;;;;;31.20;19.02;;;;;;;;;;5107383;27;20049;-83
2023/10/13 01:46:15;;;;;;;32.20;18.83;;;;;;;;;;5100053;27;20063;-84
2023/10/13 01:48:46;;;;;;;42.40;19.52;;;;;;;;;;5100389;27;20043;-85
2023/10/13 01:51:12;;;;;;;33.15;17.17;;;;;;;;;;5100075;27;20042;-82
2023/10/13 01:53:38;;;;;;;31.13;16.77;;;;;;;;;;5100085;27;20048;-84
2023/10/13 01:56:11;;;;;;;28.23;17.38;;;;;;;;;;5083063;27;20049;-83
2023/10/13 01:58:47;;;;;;;27.88;16.70;;;;;;;;;;5102902;27;20480;-87
2023/10/13 02:01:21;;;;;;;27.65;15.98;;;;;;;;;;5101422;27;20049;-87
2023/10/13 02:03:48;;;;;;;30.92;15.80;;;;;;;;;;5100849;27;20441;-89
2023/10/13 02:06:23;;;;;;;27.92;16.00;;;;;;;;;;5100594;27;20402;-90
2023/10/13 02:08:56;;;;;;;27.92;15.00;;;;;;;;;;5101532;27;20053;-89
2023/10/13 02:11:22;;;;;;;27.63;15.13;;;;;;;;;;5100451;27;20091;-88
2023/10/13 02:13:51;;;;;;;23.42;14.02;;;;;;;;;;5083668;27;20035;-92
2023/10/13 02:16:18;;;;;;;25.08;14.57;;;;;;;;;;5117547;27;20094;-90
2023/10/13 02:18:47;;;;;;;26.45;14.55;;;;;;;;;;5099920;27;20046;-93
2023/10/13 02:21:16;;;;;;;23.67;12.25;;;;;;;;;;5099803;27;20039;-91
2023/10/13 02:23:45;;;;;;;28.17;12.30;;;15.90;87.70;;;;;;5130026;27;20047;-88
2023/10/13 02:26:30;;;;;;;18.52;11.20;;;15.80;82.90;;;;;;5109477;28;20052;-83
2023/10/13 02:29:03;;;;;;;18.63;11.75;;;16.00;92.20;;;;;;5092577;28;20048;-87
2023/10/13 02:31:29;;;;;;;15.60;10.18;;;;;;;;;;5078189;28;20047;-90
2023/10/13 02:33:55;;;;;;;19.77;11.48;;;;;;;;;;5094504;28;20047;-85
2023/10/13 02:36:36;;;;;;;20.90;11.68;;;;;;;;;;5080028;28;20075;-84
2023/10/13 02:39:08;;;;;;;23.38;11.07;;;15.90;93.00;;;;;;5089007;28;20400;-91
2023/10/13 02:41:37;;;;;;;22.13;11.98;;;;;;;;;;5097670;28;20046;-94
2023/10/13 02:44:08;;;;;;;22.55;12.13;;;;;;;;;;5082488;28;20062;-83
2023/10/13 02:46:39;;;;;;;21.65;12.80;;;15.90;91.70;;;;;;5082664;28;20079;-88
2023/10/13 02:49:13;;;;;;;23.65;13.30;;;;;;;;;;5083891;28;20048;-82
2023/10/13 02:51:41;;;;;;;23.85;11.85;;;;;;;;;;5085653;28;20044;-89
2023/10/13 02:54:11;;;;;;;21.42;12.90;;;15.90;92.60;;;;;;5064973;28;20036;-85
2023/10/13 02:56:48;;;;;;;17.35;11.10;;;15.90;93.20;;;;;;5075880;28;20081;-95
2023/10/13 02:59:15;;;;;;;22.13;12.77;;;;;;;;;;5076141;28;20401;-88
2023/10/13 03:01:41;;;;;;;24.08;11.70;;;;;;;;;;5076171;28;20493;-95
2023/10/13 03:04:08;;;;;;;20.20;12.05;;;;;;;;;;5076037;28;20048;-86
2023/10/13 03:06:35;;;;;;;24.33;13.00;;;16.10;92.40;;;;;;5075357;28;20052;-85
2023/10/13 03:09:18;;;;;;;27.73;13.65;;;16.10;93.70;;;;;;5075869;28;20036;-90
2023/10/13 03:11:50;;;;;;;21.10;12.15;;;;;;;;;;5077705;28;20085;-82
2023/10/13 03:16:55;;;;;;;20.60;13.48;;;16.20;93.90;;;;;;5092409;28;20606;-91
2023/10/13 03:19:22;;;;;;;23.63;13.63;;;;;;;;;;5058515;28;20051;-93
2023/10/13 03:21:54;;;;;;;25.70;15.02;;;;;;;;;;5092353;28;20070;-93
2023/10/13 03:24:33;;;;;;;25.17;16.33;;;16.30;94.50;;;;;;5064199;28;20052;-91
2023/10/13 03:26:59;;;;;;;31.05;16.98;;;;;;;;;;5110294;28;20050;-81
2023/10/13 03:29:30;;;;;;;28.50;15.90;;;;;;;;;;5093683;28;20036;-82
2023/10/13 03:32:06;;;;;;;29.48;16.98;;;;;;;;;;5097146;28;20039;-83
2023/10/13 03:34:34;;;;;;;30.85;18.15;;;;;;;;;;5113021;28;20070;-87
2023/10/13 03:37:10;;;;;;;25.85;16.88;;;;;;;;;;5097875;28;20039;-83
2023/10/13 03:39:36;;;;;;;26.92;16.98;;;;;;;;;;5116423;28;20032;-82
2023/10/13 03:42:05;;;;;;;23.65;14.38;;;;;;;;;;5132286;28;20140;-83
2023/10/13 03:44:31;;;;;;;21.65;14.80;;;;;;;;;;5096724;28;20047;-82
2023/10/13 03:47:08;;;;;;;28.70;14.23;;;;;;;;;;5110198;28;20047;-82
2023/10/13 03:49:37;;;;;;;26.83;14.25;;;;;;;;;;5114023;28;20035;-83
2023/10/13 03:52:05;;;;;;;19.20;13.43;;;;;;;;;;5098401;28;20109;-82
2023/10/13 03:54:34;;;;;;;21.98;13.50;;;;;;;;;;5113471;28;20040;-83
2023/10/13 03:57:04;;;;;;;22.60;14.60;;;;;;;;;;5112447;28;20042;-84
2023/10/13 03:59:35;;;;;;;18.98;13.02;;;;;;;;;;5115404;28;20069;-83
2023/10/13 04:02:04;;;;;;;19.80;12.05;;;;;;;;;;5100536;28;20492;-94
2023/10/13 04:04:49;;;;;;;15.70;11.60;;;;;;;;;;5080653;28;20092;-96
2023/10/13 04:15:39;;;;;;;12.02;10.38;;;;;;;;;;5101597;28;20051;-81
2023/10/13 04:18:18;;;;;;;16.58;10.52;;;;;;;;;;5092926;28;20408;-82
2023/10/13 04:20:46;;;;;;;14.65;10.60;;;;;;;;;;5107358;28;20040;-82
2023/10/13 04:23:19;;;;;;;15.63;9.82;;;;;;;;;;5111925;28;20132;-89
2023/10/13 04:36:21;;;;;;;16.20;11.55;;;16.30;99.90;;;;;;5111998;28;20101;-89
2023/10/13 04:39:35;;;;;;;15.10;10.57;;;;;;;;;;5095506;28;20422;-93
2023/10/13 04:41:39;;;;;;;13.88;10.70;;;;;;;;;;5105914;28;20126;-93
2023/10/13 04:49:35;;;;;;;19.80;11.90;;;16.40;98.20;;;;;;5095622;28;20043;-94
2023/10/13 06:29:46;;;;;;;11.98;4.95;;;;;;;;;;5135221;27;20050;-90
2023/10/13 06:32:12;;;;;;;7.50;5.03;;;;;;;;;;5117083;27;20056;-92
2023/10/13 06:34:45;;;;;;;6.32;4.93;;;;;;;;;;5118337;27;20472;-89
2023/10/13 06:37:30;;;;;;;6.55;4.97;;;;;;;;;;5118490;27;20039;-89
2023/10/13 06:40:25;;;;;;;6.47;4.03;;;;;;;;;;5101492;27;20191;-92
2023/10/13 06:43:12;;;;;;;6.75;4.43;;;;;;;;;;5100766;27;20047;-94
2023/10/13 06:45:38;;;;;;;7.57;3.97;;;;;;;;;;5100604;27;20035;-92
2023/10/13 06:48:05;;;;;;;4.28;3.42;;;;;;;;;;5083105;27;20162;-94
2023/10/13 06:50:39;;;;;;;4.93;3.95;;;;;;;;;;5103851;27;20515;-91
2023/10/13 06:53:05;;;;;;;6.10;3.78;;;;;;;;;;5100651;27;20047;-93
2023/10/13 06:55:35;;;;;;;9.60;3.90;;;;;;;;;;5091102;28;20036;-92
2023/10/13 06:58:06;;;;;;;6.38;3.67;;;;;;;;;;5077430;28;20087;-91
2023/10/13 07:01:16;;;;;;;5.70;4.10;;;;;;;;;;5096798;28;20150;-93
2023/10/13 07:03:55;;;;;;;4.03;3.03;;;;;;;;;;5093559;27;20403;-90
2023/10/13 07:06:31;;;;;;;5.80;3.17;;;;;;;;;;5118735;27;20077;-88
2023/10/13 07:09:08;;;;;;;7.18;3.75;;;;;;;;;;5118930;27;20087;-91
2023/10/13 07:11:52;;;;;;;8.55;4.15;;;;;;;;;;5118801;27;20077;-91
2023/10/13 07:14:23;;;;;;;6.25;4.30;;;;;;;;;;5116270;27;20045;-90
2023/10/13 07:17:24;;;;;;;10.95;5.20;;;;;;;;;;5118317;27;20074;-90
2023/10/13 07:19:56;;;;;;;7.25;4.25;;;;;;;;;;5106550;27;20137;-91
2023/10/13 07:22:39;;;;;;;6.43;4.03;;;;;;;;;;5119203;27;20045;-89
2023/10/13 07:25:23;;;;;;;13.27;3.42;;;;;;;;;;5101370;27;20043;-89
2023/10/13 07:28:08;;;;;;;7.75;3.53;;;;;;;;;;5097316;27;20058;-90
2023/10/13 07:31:11;;;;;;;11.00;3.83;;;;;;;;;;5097643;27;20050;-91
2023/10/13 07:33:42;;;;;;;11.23;4.45;;;;;;;;;;5117475;27;20095;-90
2023/10/13 07:36:34;;;;;;;11.05;4.80;;;;;;;;;;5118652;27;20042;-90
2023/10/13 07:39:21;;;;;;;9.98;4.00;;;;;;;;;;5134410;27;20034;-90
2023/10/13 07:41:53;;;;;;;9.15;4.72;;;;;;;;;;5084085;27;20051;-91
2023/10/13 07:44:31;;;;;;;7.70;4.15;;;;;;;;;;5110039;27;20066;-91
2023/10/13 07:47:07;;;;;;;7.47;3.95;;;;;;;;;;5129893;27;20050;-90
2023/10/13 07:49:36;;;;;;;12.90;5.07;;;;;;;;;;5102649;27;20045;-90
2023/10/13 07:52:40;;;;;;;8.40;4.43;;;;;;;;;;5111623;27;20051;-90
2023/10/13 07:55:17;;;;;;;13.88;5.38;;;;;;;;;;5099308;27;20036;-90
2023/10/13 07:58:07;;;;;;;;;;;;;;;;;;;;;
2023/10/13 08:03:47;;;;;;;11.40;4.82;;;;;;;;;;5110479;27;20479;-91
2023/10/13 08:06:28;;;;;;;13.05;5.45;;;;;;;;;;5110127;27;20049;-91
2023/10/13 08:09:30;;;;;;;13.80;4.72;;;;;;;;;;5094072;27;20039;-92
2023/10/13 08:12:37;;;;;;;11.20;5.68;;;;;;;;;;5064942;27;20074;-91
2023/10/13 08:22:38;;;;;;;12.73;5.80;;;;;;;;;;5012119;28;20694;-89
2023/10/13 08:48:16;;;;;;;8.80;4.43;;;;;;;;;;5106438;27;20053;-90
2023/10/13 08:50:52;;;;;;;11.73;4.70;;;;;;;;;;5075508;27;20088;-90
2023/10/13 08:53:39;;;;;;;9.43;5.95;;;;;;;;;;5087759;27;20035;-91
2023/10/13 09:09:35;;;;;;;13.05;6.13;;;;;;;;;;5124324;27;20047;-90
2023/10/13 09:12:39;;;;;;;9.20;6.05;;;17.00;99.90;;;;;;5104088;27;20074;-91
2023/10/13 09:23:12;;;;;;;11.18;5.60;;;;;;;;;;5104018;27;20125;-89
2023/10/13 09:25:53;;;;;;;11.63;6.05;;;;;;;;;;5085957;27;20054;-89
2023/10/13 09:28:24;;;;;;;8.85;5.95;;;;;;;;;;5087185;27;20510;-89
2023/10/13 09:30:57;;;;;;;13.60;6.03;;;;;;;;;;5086017;27;20570;-90
2023/10/13 09:33:32;;;;;;;13.57;6.38;;;;;;;;;;5072731;27;20051;-90
2023/10/13 09:35:59;;;;;;;10.30;5.90;;;;;;;;;;5102876;27;20053;-89
2023/10/13 09:38:28;;;;;;;11.75;6.18;;;;;;;;;;5086795;27;20095;-88
2023/10/13 09:40:57;;;;;;;20.33;6.75;;;;;;;;;;5101993;27;20134;-88
2023/10/13 09:43:26;;;;;;;13.90;6.90;;;;;;;;;;5071992;27;20059;-90
2023/10/13 09:46:15;;;;;;;13.73;6.63;;;;;;;;;;5084671;27;20043;-90
2023/10/13 09:48:46;;;;;;;11.02;5.82;;;;;;;;;;5083129;27;20051;-89
2023/10/13 09:51:21;;;;;;;12.18;6.40;;;;;;;;;;5088575;27;20080;-89
2023/10/13 09:54:16;;;;;;;9.75;6.30;;;17.70;96.30;;;;;;5102449;27;20079;-89
2023/10/13 09:56:55;;;;;;;18.98;6.15;;;;;;;;;;5100084;27;20053;-90
2023/10/13 09:59:40;;;;;;;15.63;6.22;;;18.20;99.40;;;;;;5086364;27;20042;-88
2023/10/13 10:02:09;;;;;;;;;;;;;;;;;;5084967;27;20070;-88
2023/10/13 10:04:51;;;;;;;10.40;4.80;;;;;;;;;;5102726;27;19952;-88
2023/10/13 10:07:29;;;;;;;7.97;5.75;;;;;;;;;;5082626;27;20062;-88
2023/10/13 10:09:59;;;;;;;7.30;4.95;;;;;;;;;;5080882;27;20122;-87
2023/10/13 10:12:29;;;;;;;13.77;5.55;;;;;;;;;;5086352;27;20095;-88
2023/10/13 10:15:20;;;;;;;10.10;5.53;;;;;;;;;;5100637;27;20039;-89
2023/10/13 10:17:46;;;;;;;12.07;5.82;;;;;;;;;;5087170;27;20149;-90
2023/10/13 10:20:32;;;;;;;16.48;5.35;;;;;;;;;;5086017;27;20046;-89
2023/10/13 10:22:59;;;;;;;13.68;5.93;;;18.40;95.30;;;;;;5100624;27;20050;-89
2023/10/13 10:25:35;;;;;;;8.50;4.88;;;18.60;95.60;;;;;;5082951;27;20046;-89
2023/10/13 10:28:05;;;;;;;11.48;4.68;;;;;;;;;;5087123;27;20073;-89
2023/10/13 10:30:33;;;;;;;12.13;4.97;;;;;;;;;;5085696;27;20425;-88
2023/10/13 10:33:00;;;;;;;18.88;5.93;;;;;;;;;;5101190;27;20547;-89
2023/10/13 10:35:32;;;;;;;6.97;4.38;;;;;;;;;;5104207;27;20043;-89
2023/10/13 10:41:13;;;;;;;14.82;5.15;;;18.80;85.90;;;;;;5103336;27;20035;-88
2023/10/13 10:43:43;;;;;;;19.88;5.57;;;;;;;;;;5069942;27;20047;-88
2023/10/13 10:46:18;;;;;;;18.00;5.35;;;;;;;;;;5101482;27;20091;-89
2023/10/13 10:48:47;;;;;;;13.18;6.00;;;;;;;;;;5119058;27;20043;-89
2023/10/13 10:53:47;;;;;;;14.93;4.83;;;;;;;;;;5100806;27;20051;-88
2023/10/13 10:56:20;;;;;;;12.38;5.45;;;;;;;;;;5067099;27;20077;-89
2023/10/13 10:58:54;;;;;;;15.00;5.32;;;19.10;80.20;;;;;;5082614;27;20042;-89
2023/10/13 11:01:24;;;;;;;13.80;5.15;;;;;;;;;;5119770;27;20411;-89
2023/10/13 11:03:57;;;;;;;14.05;4.90;;;19.30;78.80;;;;;;5107753;27;20511;-88
2023/10/13 11:06:27;;;;;;;12.02;5.43;;;19.30;72.90;;;;;;5120109;27;20031;-88
2023/10/13 11:09:31;;;;;;;11.82;4.70;;;19.30;59.50;;;;;;5096784;27;20093;-88
2023/10/13 11:12:06;;;;;;;12.63;4.80;;;19.30;54.60;;;;;;5105727;27;20080;-88
2023/10/13 11:14:32;;;;;;;13.13;5.32;;;;;;;;;;5120422;27;20050;-88
2023/10/13 11:17:05;;;;;;;16.08;5.80;;;19.30;57.30;;;;;;5083709;27;20518;-89
2023/10/13 11:19:38;;;;;;;12.00;5.90;;;19.60;48.60;;;;;;5114824;27;20380;-88
2023/10/13 11:22:11;;;;;;;13.07;6.03;;;19.30;49.80;;;;;;5067050;27;20624;-88
2023/10/13 11:24:43;;;;;;;15.32;6.60;;;19.50;48.00;;;;;;5058243;27;20062;-88
2023/10/13 11:27:43;;;;;;;18.63;5.72;;;19.50;55.40;;;;;;5081113;27;20039;-88
2023/10/13 11:30:12;;;;;;;13.95;5.25;;;;;;;;;;5088726;27;20105;-88
2023/10/13 11:32:41;;;;;;;13.65;5.18;;;;;;;;;;5100506;28;20039;-87
2023/10/13 11:35:20;;;;;;;12.35;4.80;;;19.50;49.80;;;;;;5116931;27;20047;-87
2023/10/13 11:40:43;;;;;;;11.75;5.10;;;;;;;;;;5085942;28;20081;-86
2023/10/13 11:43:15;;;;;;;21.77;7.00;;;19.70;47.30;;;;;;5065182;28;20483;-87
2023/10/13 11:48:36;;;;;;;9.55;4.78;;;19.30;32.00;;;;;;5086201;28;20063;-88
2023/10/13 11:51:07;;;;;;;19.15;5.22;;;19.40;24.70;;;;;;5085605;28;20051;-89
2023/10/13 11:53:34;;;;;;;19.50;5.35;;;19.30;26.10;;;;;;5082068;28;20035;-88
2023/10/13 11:56:01;;;;;;;10.05;4.80;;;;;;;;;;5079268;28;20114;-87
2023/10/13 11:58:30;;;;;;;12.60;5.85;;;;;;;;;;5114277;27;20043;-86
2023/10/13 12:12:00;;;;;;;19.63;5.88;;;;;;;;;;5099999;27;20474;-85
2023/10/13 12:14:52;;;;;;;10.68;6.43;;;;;;;;;;5122744;27;20500;-86
2023/10/13 12:17:24;;;;;;;16.63;6.88;;;;;;;;;;5105306;27;20035;-86
2023/10/13 12:19:52;;;;;;;16.38;6.10;;;19.10;53.30;;;;;;5119261;27;20068;-87
2023/10/13 12:22:27;;;;;;;11.30;5.97;;;;;;;;;;5084361;27;20078;-85
2023/10/13 12:24:53;;;;;;;13.13;5.40;;;;;;;;;;5122792;27;20167;-85
2023/10/13 12:27:19;;;;;;;15.15;5.82;;;19.00;72.30;;;;;;5070947;27;20054;-86
2023/10/13 12:29:51;;;;;;;17.52;5.90;;;19.10;53.30;;;;;;5100356;27;20053;-86
2023/10/13 12:32:22;;;;;;;19.90;6.60;;;;;;;;;;5102555;27;20426;-85
2023/10/13 12:53:48;;;;;;;20.25;6.95;;;18.80;54.70;;;;;;5103342;27;20043;-86
2023/10/13 12:56:17;;;;;;;13.63;6.50;;;;;;;;;;5087898;27;20091;-86
2023/10/13 12:58:54;;;;;;;23.83;6.43;;;;;;;;;;5103512;27;20055;-87
2023/10/13 13:01:25;;;;;;;15.55;6.55;;;18.80;45.00;;;;;;5120885;27;20088;-87
2023/10/13 13:03:56;;;;;;;15.60;6.65;;;18.90;55.00;;;;;;5104515;27;20047;-83
2023/10/13 13:06:26;;;;;;;16.15;6.70;;;16.60;54.80;;;;;;5103618;27;20452;-83
2023/10/13 13:08:53;;;;;;;13.60;6.88;;;;;;;;;;5101792;27;20162;-87
2023/10/13 13:11:19;;;;;;;13.30;6.85;;;;;;;;;;5102366;27;20126;-87
2023/10/13 13:13:48;;;;;;;9.75;6.28;;;;;;;;;;5081912;27;20088;-85
2023/10/13 13:16:14;;;;;;;16.40;7.20;;;18.70;53.80;;;;;;5081817;27;20039;-87
2023/10/13 13:18:43;;;;;;;12.32;6.03;;;;;;;;;;5101413;27;20555;-85
2023/10/13 13:21:12;;;;;;;20.10;7.22;;;;;;;;;;5104155;27;20055;-86
2023/10/13 13:23:39;;;;;;;16.52;7.63;;;;;;;;;;5098525;27;20043;-87
2023/10/13 13:26:15;;;;;;;16.45;6.50;;;;;;;;;;5100836;27;20063;-86
2023/10/13 13:28:50;;;;;;;18.98;7.60;;;;;;;;;;5117006;27;20090;-87
2023/10/13 13:31:29;;;;;;;11.70;6.63;;;18.30;64.20;;;;;;5119850;27;20041;-88
2023/10/13 13:33:55;;;;;;;18.85;6.85;;;;;;;;;;5084609;27;20039;-86
2023/10/13 13:36:22;;;;;;;15.57;7.45;;;;;;;;;;5097359;27;20043;-88
2023/10/13 13:38:50;;;;;;;15.02;7.07;;;;;;;;;;5080805;27;20127;-86
2023/10/13 13:41:17;;;;;;;14.82;5.93;;;18.20;66.90;;;;;;5102042;27;20035;-86
2023/10/13 13:46:17;;;;;;;12.10;6.53;;;;;;;;;;5101299;27;20122;-88
2023/10/13 13:48:43;;;;;;;14.23;6.65;;;;;;;;;;5120432;27;20039;-90
2023/10/13 13:51:19;;;;;;;16.33;6.85;;;;;;;;;;5087922;27;20050;-90
2023/10/13 13:53:47;;;;;;;18.10;7.28;;;;;;;;;;5103282;27;20051;-88
2023/10/13 13:56:16;;;;;;;16.92;7.47;;;;;;;;;;5102899;27;20078;-88
2023/10/13 13:58:51;;;;;;;19.00;6.45;;;;;;;;;;5065076;27;20381;-85
2023/10/13 14:01:21;;;;;;;16.83;7.07;;;;;;;;;;5083717;27;20035;-88
2023/10/13 14:03:52;;;;;;;13.23;7.05;;;18.40;68.60;;;;;;5095442;27;20047;-86
2023/10/13 14:06:27;;;;;;;18.48;7.28;;;;;;;;;;5084472;27;20050;-86
2023/10/13 14:08:59;;;;;;;17.33;7.68;;;18.30;58.00;;;;;;5080768;27;20048;-87
2023/10/13 14:14:12;;;;;;;22.50;7.38;;;;;;;;;;5120903;27;20133;-87
2023/10/13 14:16:44;;;;;;;15.60;6.73;;;18.40;67.70;;;;;;5081644;27;20046;-86
2023/10/13 14:19:11;;;;;;;16.08;7.43;;;;;;;;;;5069037;27;20342;-86
2023/10/13 14:21:37;;;;;;;11.32;5.30;;;;;;;;;;5083291;27;20035;-87
2023/10/13 14:24:12;;;;;;;14.02;6.05;;;;;;;;;;5084488;27;20039;-87
2023/10/13 14:26:39;;;;;;;15.80;7.07;;;;;;;;;;5100805;27;20449;-86
2023/10/13 14:29:08;;;;;;;12.48;5.40;;;;;;;;;;5117737;27;20130;-86
2023/10/13 14:31:36;;;;;;;13.88;6.55;;;18.50;60.20;;;;;;5086015;27;20093;-86
2023/10/13 14:34:03;;;;;;;18.35;6.55;;;;;;;;;;5082723;27;20039;-85
2023/10/13 14:36:29;;;;;;;13.82;6.80;;;;;;;;;;5083564;27;20135;-86
2023/10/13 14:38:58;;;;;;;16.52;6.18;;;18.70;64.30;;;;;;5119753;27;20049;-87
2023/10/13 14:41:24;;;;;;;11.63;6.30;;;;;;;;;;5120819;27;20049;-87
2023/10/13 14:43:50;;;;;;;20.33;6.45;;;;;;;;;;5118962;27;20495;-85
2023/10/13 14:46:17;;;;;;;18.67;6.05;;;;;;;;;;5079692;27;20039;-86
2023/10/13 14:48:43;;;;;;;13.38;6.35;;;18.70;60.30;;;;;;5115080;27;20796;-86
2023/10/13 14:51:13;;;;;;;13.35;6.72;;;18.60;61.10;;;;;;5099132;27;20054;-86
2023/10/13 14:53:46;;;;;;;14.57;5.65;;;18.70;61.10;;;;;;5099316;27;20039;-86
2023/10/13 14:56:16;;;;;;;12.25;6.40;;;;;;;;;;5114897;27;20043;-85
2023/10/13 14:58:42;;;;;;;14.52;6.10;;;;;;;;;;5100634;27;20046;-86
2023/10/13 15:01:16;;;;;;;19.48;6.35;;;18.50;49.00;;;;;;5082702;27;20448;-86
2023/10/13 15:03:43;;;;;;;16.65;6.00;;;18.80;57.60;;;;;;5119994;27;20039;-87
2023/10/13 15:06:24;;;;;;;11.30;5.78;;;18.60;57.70;;;;;;5080296;27;20061;-87
2023/10/13 15:08:53;;;;;;;11.50;6.63;;;18.80;58.00;;;;;;5100041;27;20054;-83
2023/10/13 15:11:19;;;;;;;13.95;6.15;;;;;;;;;;5101350;27;20519;-84
2023/10/13 15:13:49;;;;;;;14.07;5.82;;;;;;;;;;5066827;27;20666;-87
2023/10/13 15:16:21;;;;;;;18.52;7.18;;;18.80;59.70;;;;;;5116239;27;20050;-84
2023/10/13 15:18:53;;;;;;;21.08;7.35;;;18.60;60.50;;;;;;5084021;27;20122;-87
2023/10/13 15:21:26;;;;;;;18.50;7.10;;;18.80;62.60;;;;;;5117880;27;20043;-85
2023/10/13 15:24:13;;;;;;;19.63;7.13;;;;;;;;;;5119244;27;20051;-87
2023/10/13 15:26:48;;;;;;;11.02;4.80;;;18.70;53.50;;;;;;5094730;27;20087;-86
2023/10/13 15:29:24;;;;;;;13.70;5.80;;;18.60;62.60;;;;;;5114215;27;20042;-86
2023/10/13 15:34:40;;;;;;;11.13;5.50;;;;;;;;;;5088161;27;20054;-86
2023/10/13 15:37:12;;;;;;;13.73;6.30;;;;;;;;;;5082111;27;20132;-85
2023/10/13 15:39:39;;;;;;;13.93;5.95;;;;;;;;;;5118677;27;20043;-85
2023/10/13 15:42:05;;;;;;;17.38;6.32;;;;;;;;;;5083921;27;20091;-84
2023/10/13 15:44:34;;;;;;;15.75;6.35;;;18.50;65.10;;;;;;5100408;27;20047;-86
2023/10/13 15:47:04;;;;;;;15.63;5.38;;;;;;;;;;5100512;28;20039;-87
2023/10/13 15:49:36;;;;;;;16.30;5.85;;;;;;;;;;5115641;28;20048;-87
2023/10/13 15:52:03;;;;;;;15.63;6.38;;;;;;;;;;5083746;28;20038;-86
2023/10/13 15:54:30;;;;;;;18.13;6.32;;;;;;;;;;5116966;28;20043;-84
2023/10/13 15:56:56;;;;;;;14.93;5.43;;;;;;;;;;5100452;28;20562;-86
2023/10/13 15:59:23;;;;;;;9.93;5.60;;;;;;;;;;5060699;28;20035;-85
2023/10/13 16:01:54;;;;;;;17.75;6.30;;;;;;;;;;5083783;28;20377;-87
2023/10/13 16:04:20;;;;;;;9.80;6.20;;;;;;;;;;5109368;27;20235;-84
2023/10/13 16:06:47;;;;;;;11.73;5.65;;;18.50;60.70;;;;;;5079976;28;20089;-87
2023/10/13 16:09:22;;;;;;;17.98;6.03;;;;;;;;;;5108696;28;20122;-88
2023/10/13 16:11:49;;;;;;;10.43;6.40;;;18.60;65.20;;;;;;5114443;28;20063;-85
2023/10/13 16:14:17;;;;;;;15.57;6.88;;;;;;;;;;5132657;28;20050;-88
2023/10/13 16:16:47;;;;;;;17.60;7.15;;;18.40;58.70;;;;;;5131798;27;20043;-86
2023/10/13 16:19:17;;;;;;;14.43;6.93;;;18.20;71.20;;;;;;5097433;28;20545;-87
2023/10/13 16:21:43;;;;;;;13.60;5.32;;;;;;;;;;5136070;27;20548;-85
2023/10/13 16:24:10;;;;;;;15.80;6.75;;;;;;;;;;5153739;27;20117;-87
2023/10/13 16:26:37;;;;;;;11.55;5.80;;;18.30;65.40;;;;;;5099521;28;20402;-89
2023/10/13 16:29:07;;;;;;;13.40;5.18;;;;;;;;;;5133067;28;20051;-88
2023/10/13 16:31:33;;;;;;;12.90;5.28;;;;;;;;;;5097277;28;20047;-87
2023/10/13 16:33:59;;;;;;;13.55;5.45;;;;;;;;;;5132560;28;20130;-88
2023/10/13 16:36:25;;;;;;;13.07;7.28;;;;;;;;;;5114822;27;20039;-87
2023/10/13 16:38:52;;;;;;;23.15;13.45;;;;;;;;;;5117786;27;20129;-87
2023/10/13 16:41:18;;;;;;;27.75;16.13;;;;;;;;;;5134791;27;20042;-87
2023/10/13 16:43:45;;;;;;;14.95;7.63;;;;;;;;;;5117694;27;20046;-86
2023/10/13 16:46:12;;;;;;;57.55;51.78;;;18.40;71.20;;;;;;5117690;27;20059;-87
2023/10/13 16:48:39;;;;;;;23.25;15.02;;;18.10;68.90;;;;;;5100081;27;20080;-87
2023/10/13 16:51:05;;;;;;;10.07;7.00;;;;;;;;;;5153315;27;20092;-85
2023/10/13 16:53:35;;;;;;;15.93;12.07;;;;;;;;;;5117514;27;20399;-87
2023/10/13 16:56:01;;;;;;;20.08;13.55;;;;;;;;;;5101327;27;20043;-87
2023/10/13 16:58:30;;;;;;;10.57;4.50;;;18.20;66.70;;;;;;5100362;27;20039;-87
2023/10/13 17:00:56;;;;;;;10.13;4.43;;;;;;;;;;5134011;27;20086;-87
2023/10/13 17:03:31;;;;;;;9.07;5.88;;;;;;;;;;5121267;27;20499;-88
2023/10/13 17:06:01;;;;;;;12.60;4.97;;;18.20;70.40;;;;;;5138370;27;20043;-86
2023/10/13 17:08:31;;;;;;;10.27;4.55;;;18.30;73.50;;;;;;5156619;27;20094;-85
2023/10/13 17:11:07;;;;;;;10.25;4.72;;;;;;;;;;5138073;27;20043;-88
2023/10/13 17:13:34;;;;;;;13.60;4.38;;;;;;;;;;5118175;27;20480;-85
2023/10/13 17:16:00;;;;;;;13.85;4.50;;;;;;;;;;5101125;27;20031;-86
2023/10/13 17:18:28;;;;;;;16.63;4.68;;;;;;;;;;5100581;27;20046;-87
2023/10/13 17:20:55;;;;;;;14.43;5.38;;;;;;;;;;5117712;27;20043;-86
2023/10/13 17:23:21;;;;;;;9.73;4.25;;;;;;;;;;5153721;27;20095;-86
2023/10/13 17:25:47;;;;;;;11.82;5.18;;;;;;;;;;5137591;27;20073;-87
2023/10/13 17:28:13;;;;;;;11.25;6.70;;;;;;;;;;5156189;27;20506;-88
2023/10/13 17:30:41;;;;;;;13.50;4.80;;;18.00;74.30;;;;;;5137395;27;20038;-86
2023/10/13 17:33:11;;;;;;;20.63;8.90;;;;;;;;;;5121200;27;20050;-87
2023/10/13 17:35:40;;;;;;;15.18;4.70;;;18.30;62.10;;;;;;5136012;27;20039;-87
2023/10/13 17:38:06;;;;;;;27.30;5.50;;;;;;;;;;5135463;27;20066;-85
2023/10/13 17:40:34;;;;;;;9.98;4.88;;;18.30;74.90;;;;;;5117007;27;20556;-87
2023/10/13 17:43:00;;;;;;;18.33;4.95;;;;;;;;;;5117095;27;20050;-87
2023/10/13 17:45:26;;;;;;;13.20;5.75;;;;;;;;;;5116895;27;20043;-86
2023/10/13 17:47:52;;;;;;;15.73;5.75;;;;;;;;;;5117023;27;20089;-86
2023/10/13 17:50:19;;;;;;;10.18;4.90;;;;;;;;;;5082903;27;20090;-86
2023/10/13 17:52:47;;;;;;;7.45;4.45;;;;;;;;;;5117163;27;20537;-86
2023/10/13 17:55:17;;;;;;;11.88;5.50;;;;;;;;;;5111193;27;20091;-86
2023/10/13 17:57:45;;;;;;;17.27;5.88;;;;;;;;;;5136987;27;20049;-87
2023/10/13 18:00:15;;;;;;;12.77;5.03;;;18.60;71.30;;;;;;5079432;28;20096;-82
2023/10/13 18:02:44;;;;;;;11.82;5.47;;;18.30;91.90;;;;;;5127872;27;20035;-83
2023/10/13 18:05:13;;;;;;;13.95;5.97;;;18.30;63.10;;;;;;5112067;27;20039;-82
2023/10/13 18:07:40;;;;;;;15.35;6.45;;;18.40;65.90;;;;;;5094853;27;20047;-82
2023/10/13 18:10:09;;;;;;;12.93;5.88;;;;;;;;;;5070647;27;20043;-82
2023/10/13 18:12:40;;;;;;;9.95;4.43;;;;;;;;;;5121421;27;22066;-82
2023/10/13 18:15:09;;;;;;;13.63;6.75;;;;;;;;;;5103765;27;20444;-83
2023/10/13 18:17:39;;;;;;;9.10;5.72;;;;;;;;;;5123065;27;20051;-82